Terminal Aerodrome Forecast
Issued by NWS

Home | Current Version | Previous Version | Text Only | Print | Product List | Glossary On
Versions: 1 2 3 4 5 6 7 8 9 10 11 12 13 14 15 16 17 18 19 20 21 22 23 24 25 26 27 28 29 30 31 32
000
FTUS43 KDMX 201124
TAFFOD
TAF
KFOD 201124Z 2012/2112 VRB03KT P6SM VCTS FEW025 SCT040CB OVC100
      TEMPO 2012/2014 VRB10G20KT 3SM TSRA BR BKN020CB
     FM201500 16008KT P6SM FEW040 SCT120=

USA.gov is the U.S. government's official web portal to all federal, state and local government web resources and services.